sensor_id;sensor_type;location;lat;lon;timestamp;pressure;altitude;pressure_sealevel;temperature;humidity
30935;BME280;51033;42.648;23.292;2023-03-05T00:01:25;93376.56;;;7.33;63.91
30935;BME280;51033;42.648;23.292;2023-03-05T00:03:53;93365.09;;;7.15;64.80
30935;BME280;51033;42.648;23.292;2023-03-05T00:06:19;93388.25;;;7.40;63.36
30935;BME280;51033;42.648;23.292;2023-03-05T00:08:45;93378.13;;;7.34;62.45
30935;BME280;51033;42.648;23.292;2023-03-05T00:11:11;93362.50;;;7.23;63.05
30935;BME280;51033;42.648;23.292;2023-03-05T00:13:38;93345.03;;;7.14;63.00
30935;BME280;51033;42.648;23.292;2023-03-05T00:16:09;93344.91;;;7.19;62.86
30935;BME280;51033;42.648;23.292;2023-03-05T00:18:35;93348.81;;;7.21;62.89
30935;BME280;51033;42.648;23.292;2023-03-05T00:21:01;93348.19;;;7.24;62.98
30935;BME280;51033;42.648;23.292;2023-03-05T00:23:27;93357.38;;;7.27;63.54
30935;BME280;51033;42.648;23.292;2023-03-05T00:25:52;93363.94;;;7.29;63.91
30935;BME280;51033;42.648;23.292;2023-03-05T00:28:17;93365.19;;;7.32;64.01
30935;BME280;51033;42.648;23.292;2023-03-05T00:30:43;93358.84;;;7.33;64.00
30935;BME280;51033;42.648;23.292;2023-03-05T00:33:10;93353.97;;;7.26;64.26
30935;BME280;51033;42.648;23.292;2023-03-05T00:35:44;93363.13;;;7.29;64.22
30935;BME280;51033;42.648;23.292;2023-03-05T00:38:10;93332.75;;;7.18;64.51
30935;BME280;51033;42.648;23.292;2023-03-05T00:40:37;93335.41;;;7.18;64.61
30935;BME280;51033;42.648;23.292;2023-03-05T00:43:04;93351.75;;;7.20;64.54
30935;BME280;51033;42.648;23.292;2023-03-05T00:45:29;93354.63;;;7.32;64.30
30935;BME280;51033;42.648;23.292;2023-03-05T00:47:55;93346.69;;;7.32;62.51
30935;BME280;51033;42.648;23.292;2023-03-05T00:50:20;93341.56;;;7.36;61.52
30935;BME280;51033;42.648;23.292;2023-03-05T00:52:46;93330.78;;;7.23;61.63
30935;BME280;51033;42.648;23.292;2023-03-05T00:55:11;93308.38;;;6.99;61.50
30935;BME280;51033;42.648;23.292;2023-03-05T00:57:37;93309.22;;;7.08;62.03
30935;BME280;51033;42.648;23.292;2023-03-05T01:00:04;93319.44;;;7.01;58.94
30935;BME280;51033;42.648;23.292;2023-03-05T01:02:30;93319.75;;;6.99;59.73
30935;BME280;51033;42.648;23.292;2023-03-05T01:04:55;93302.16;;;6.72;59.40
30935;BME280;51033;42.648;23.292;2023-03-05T01:07:20;93319.78;;;6.85;58.87
30935;BME280;51033;42.648;23.292;2023-03-05T01:09:46;93298.38;;;6.65;59.62
30935;BME280;51033;42.648;23.292;2023-03-05T01:12:11;93302.09;;;6.64;59.62
30935;BME280;51033;42.648;23.292;2023-03-05T01:14:37;93307.56;;;6.67;59.73
30935;BME280;51033;42.648;23.292;2023-03-05T01:17:02;93321.16;;;6.61;59.63
30935;BME280;51033;42.648;23.292;2023-03-05T01:19:28;93283.44;;;6.24;60.56
30935;BME280;51033;42.648;23.292;2023-03-05T01:21:53;93305.31;;;6.38;60.73
30935;BME280;51033;42.648;23.292;2023-03-05T01:24:19;93293.34;;;6.41;60.40
30935;BME280;51033;42.648;23.292;2023-03-05T01:26:45;93315.94;;;6.47;59.77
30935;BME280;51033;42.648;23.292;2023-03-05T01:29:11;93305.25;;;6.30;60.85
30935;BME280;51033;42.648;23.292;2023-03-05T01:31:36;93288.34;;;6.17;60.17
30935;BME280;51033;42.648;23.292;2023-03-05T01:34:02;93297.75;;;6.10;61.05
30935;BME280;51033;42.648;23.292;2023-03-05T01:36:27;93273.81;;;6.06;60.38
30935;BME280;51033;42.648;23.292;2023-03-05T01:38:53;93286.22;;;6.19;60.29
30935;BME280;51033;42.648;23.292;2023-03-05T01:41:19;93282.19;;;6.22;60.82
30935;BME280;51033;42.648;23.292;2023-03-05T01:43:46;93287.78;;;6.20;60.73
30935;BME280;51033;42.648;23.292;2023-03-05T01:46:27;93298.19;;;6.39;60.58
30935;BME280;51033;42.648;23.292;2023-03-05T01:49:01;93305.50;;;6.42;60.78
30935;BME280;51033;42.648;23.292;2023-03-05T01:51:32;93280.75;;;6.16;60.51
30935;BME280;51033;42.648;23.292;2023-03-05T01:53:59;93304.59;;;6.24;58.45
30935;BME280;51033;42.648;23.292;2023-03-05T01:56:28;93254.00;;;5.81;58.46
30935;BME280;51033;42.648;23.292;2023-03-05T01:58:54;93308.13;;;6.20;58.83
30935;BME280;51033;42.648;23.292;2023-03-05T02:01:29;93278.13;;;5.88;58.81
30935;BME280;51033;42.648;23.292;2023-03-05T02:03:55;93296.78;;;6.06;59.28
30935;BME280;51033;42.648;23.292;2023-03-05T02:06:20;93309.06;;;6.24;59.26
30935;BME280;51033;42.648;23.292;2023-03-05T02:08:45;93304.59;;;6.24;59.67
30935;BME280;51033;42.648;23.292;2023-03-05T02:11:11;93293.44;;;6.14;59.59
30935;BME280;51033;42.648;23.292;2023-03-05T02:13:36;93291.84;;;6.26;58.60
30935;BME280;51033;42.648;23.292;2023-03-05T02:16:05;93257.34;;;6.23;57.57
30935;BME280;51033;42.648;23.292;2023-03-05T02:18:31;93294.13;;;6.41;56.64
30935;BME280;51033;42.648;23.292;2023-03-05T02:20:59;93308.03;;;6.47;55.68
30935;BME280;51033;42.648;23.292;2023-03-05T02:23:29;93292.34;;;6.15;56.77
30935;BME280;51033;42.648;23.292;2023-03-05T02:25:57;93309.63;;;6.34;56.80
30935;BME280;51033;42.648;23.292;2023-03-05T02:28:51;93300.66;;;6.22;56.78
30935;BME280;51033;42.648;23.292;2023-03-05T02:31:21;93299.84;;;6.35;56.85
30935;BME280;51033;42.648;23.292;2023-03-05T02:33:47;93312.13;;;6.53;55.84
30935;BME280;51033;42.648;23.292;2023-03-05T02:36:13;93291.31;;;6.38;55.96
30935;BME280;51033;42.648;23.292;2023-03-05T02:38:39;93305.69;;;6.46;56.54
30935;BME280;51033;42.648;23.292;2023-03-05T02:41:05;93257.66;;;6.08;56.45
30935;BME280;51033;42.648;23.292;2023-03-05T02:43:30;93301.44;;;6.36;55.96
30935;BME280;51033;42.648;23.292;2023-03-05T02:45:56;93302.38;;;6.40;56.13
30935;BME280;51033;42.648;23.292;2023-03-05T02:48:21;93288.22;;;6.36;55.13
30935;BME280;51033;42.648;23.292;2023-03-05T02:50:47;93317.06;;;6.32;55.56
30935;BME280;51033;42.648;23.292;2023-03-05T02:53:13;93300.47;;;6.18;55.54
30935;BME280;51033;42.648;23.292;2023-03-05T02:55:38;93315.75;;;6.21;56.21
30935;BME280;51033;42.648;23.292;2023-03-05T02:58:04;93318.75;;;6.15;56.42
30935;BME280;51033;42.648;23.292;2023-03-05T03:00:29;93314.19;;;6.20;56.54
30935;BME280;51033;42.648;23.292;2023-03-05T03:02:55;93314.66;;;6.22;56.40
30935;BME280;51033;42.648;23.292;2023-03-05T03:05:20;93305.16;;;6.08;56.87
30935;BME280;51033;42.648;23.292;2023-03-05T03:07:46;93281.50;;;6.02;56.09
30935;BME280;51033;42.648;23.292;2023-03-05T03:10:11;93300.09;;;5.97;56.95
30935;BME280;51033;42.648;23.292;2023-03-05T03:12:41;93306.75;;;5.95;57.19
30935;BME280;51033;42.648;23.292;2023-03-05T03:15:10;93313.25;;;5.75;57.78
30935;BME280;51033;42.648;23.292;2023-03-05T03:17:36;93304.81;;;5.73;57.64
30935;BME280;51033;42.648;23.292;2023-03-05T03:20:07;93305.13;;;5.58;58.23
30935;BME280;51033;42.648;23.292;2023-03-05T03:22:33;93291.06;;;5.49;58.71
30935;BME280;51033;42.648;23.292;2023-03-05T03:24:59;93335.31;;;5.79;57.88
30935;BME280;51033;42.648;23.292;2023-03-05T03:27:25;93333.53;;;5.88;57.48
30935;BME280;51033;42.648;23.292;2023-03-05T03:29:51;93329.06;;;5.75;57.07
30935;BME280;51033;42.648;23.292;2023-03-05T03:32:17;93334.31;;;5.34;57.83
30935;BME280;51033;42.648;23.292;2023-03-05T03:34:42;93323.84;;;5.16;58.90
30935;BME280;51033;42.648;23.292;2023-03-05T03:37:08;93310.84;;;5.05;59.36
30935;BME280;51033;42.648;23.292;2023-03-05T03:39:34;93314.59;;;5.18;58.49
30935;BME280;51033;42.648;23.292;2023-03-05T03:41:59;93341.91;;;5.08;59.36
30935;BME280;51033;42.648;23.292;2023-03-05T03:44:25;93333.31;;;5.03;59.51
30935;BME280;51033;42.648;23.292;2023-03-05T03:46:51;93327.63;;;5.09;59.67
30935;BME280;51033;42.648;23.292;2023-03-05T03:49:22;93332.56;;;5.30;58.67
30935;BME280;51033;42.648;23.292;2023-03-05T03:51:49;93325.16;;;5.32;58.28
30935;BME280;51033;42.648;23.292;2023-03-05T03:54:16;93322.59;;;5.27;58.28
30935;BME280;51033;42.648;23.292;2023-03-05T03:56:42;93318.50;;;5.21;58.07
30935;BME280;51033;42.648;23.292;2023-03-05T03:59:07;93321.13;;;5.21;58.06
30935;BME280;51033;42.648;23.292;2023-03-05T04:01:33;93319.44;;;5.11;58.85
30935;BME280;51033;42.648;23.292;2023-03-05T04:03:59;93316.91;;;5.20;58.45
30935;BME280;51033;42.648;23.292;2023-03-05T04:06:24;93334.47;;;5.10;58.51
30935;BME280;51033;42.648;23.292;2023-03-05T04:08:49;93325.94;;;5.19;58.45
30935;BME280;51033;42.648;23.292;2023-03-05T04:11:15;93340.81;;;5.09;59.16
30935;BME280;51033;42.648;23.292;2023-03-05T04:13:43;93336.81;;;4.98;59.09
30935;BME280;51033;42.648;23.292;2023-03-05T04:16:09;93305.34;;;4.88;59.09
30935;BME280;51033;42.648;23.292;2023-03-05T04:18:34;93332.44;;;5.07;59.03
30935;BME280;51033;42.648;23.292;2023-03-05T04:20:59;93345.09;;;4.92;59.68
30935;BME280;51033;42.648;23.292;2023-03-05T04:23:25;93343.13;;;4.84;59.80
30935;BME280;51033;42.648;23.292;2023-03-05T04:25:50;93341.50;;;5.01;59.44
30935;BME280;51033;42.648;23.292;2023-03-05T04:28:16;93289.72;;;4.78;59.00
30935;BME280;51033;42.648;23.292;2023-03-05T04:30:42;93351.06;;;4.97;59.38
30935;BME280;51033;42.648;23.292;2023-03-05T04:33:08;93327.63;;;4.96;59.54
30935;BME280;51033;42.648;23.292;2023-03-05T04:35:33;93303.44;;;4.94;58.81
30935;BME280;51033;42.648;23.292;2023-03-05T04:37:59;93338.84;;;5.01;58.64
30935;BME280;51033;42.648;23.292;2023-03-05T04:40:24;93337.13;;;5.10;58.58
30935;BME280;51033;42.648;23.292;2023-03-05T04:42:49;93320.75;;;5.13;58.02
30935;BME280;51033;42.648;23.292;2023-03-05T04:45:15;93335.69;;;5.18;57.78
30935;BME280;51033;42.648;23.292;2023-03-05T04:47:44;93287.22;;;5.00;57.70
30935;BME280;51033;42.648;23.292;2023-03-05T04:50:10;93323.75;;;5.21;57.34
30935;BME280;51033;42.648;23.292;2023-03-05T04:52:40;93318.28;;;5.17;57.74
30935;BME280;51033;42.648;23.292;2023-03-05T04:55:07;93318.09;;;5.13;57.58
30935;BME280;51033;42.648;23.292;2023-03-05T04:57:32;93329.44;;;5.28;57.76
30935;BME280;51033;42.648;23.292;2023-03-05T04:59:57;93324.25;;;5.23;56.60
30935;BME280;51033;42.648;23.292;2023-03-05T05:02:23;93332.19;;;5.23;56.98
30935;BME280;51033;42.648;23.292;2023-03-05T05:04:52;93324.91;;;5.14;56.87
30935;BME280;51033;42.648;23.292;2023-03-05T05:07:17;93322.97;;;5.20;56.46
30935;BME280;51033;42.648;23.292;2023-03-05T05:09:43;93310.38;;;5.03;56.49
30935;BME280;51033;42.648;23.292;2023-03-05T05:12:08;93316.78;;;4.97;57.00
30935;BME280;51033;42.648;23.292;2023-03-05T05:14:34;93328.66;;;5.13;56.57
30935;BME280;51033;42.648;23.292;2023-03-05T05:17:00;93333.16;;;5.27;56.10
30935;BME280;51033;42.648;23.292;2023-03-05T05:19:30;93334.31;;;5.21;56.29
30935;BME280;51033;42.648;23.292;2023-03-05T05:21:55;93338.78;;;5.20;55.90
30935;BME280;51033;42.648;23.292;2023-03-05T05:24:20;93300.09;;;4.88;55.75
30935;BME280;51033;42.648;23.292;2023-03-05T05:26:46;93340.97;;;5.18;55.79
30935;BME280;51033;42.648;23.292;2023-03-05T05:29:11;93344.25;;;5.10;55.99
30935;BME280;51033;42.648;23.292;2023-03-05T05:31:37;93341.81;;;5.13;55.86
30935;BME280;51033;42.648;23.292;2023-03-05T05:34:03;93329.81;;;5.07;55.24
30935;BME280;51033;42.648;23.292;2023-03-05T05:36:28;93337.31;;;5.14;54.64
30935;BME280;51033;42.648;23.292;2023-03-05T05:38:53;93329.13;;;5.16;54.19
30935;BME280;51033;42.648;23.292;2023-03-05T05:41:19;93343.88;;;5.17;53.38
30935;BME280;51033;42.648;23.292;2023-03-05T05:43:44;93342.91;;;5.12;54.13
30935;BME280;51033;42.648;23.292;2023-03-05T05:46:13;93347.75;;;5.05;53.21
30935;BME280;51033;42.648;23.292;2023-03-05T05:48:39;93345.09;;;5.05;53.47
30935;BME280;51033;42.648;23.292;2023-03-05T05:51:07;93342.81;;;4.85;53.10
30935;BME280;51033;42.648;23.292;2023-03-05T05:53:32;93344.72;;;4.80;53.31
30935;BME280;51033;42.648;23.292;2023-03-05T05:55:58;93353.66;;;4.65;53.43
30935;BME280;51033;42.648;23.292;2023-03-05T05:58:23;93344.34;;;4.73;53.15
30935;BME280;51033;42.648;23.292;2023-03-05T06:00:49;93366.34;;;4.63;52.76
30935;BME280;51033;42.648;23.292;2023-03-05T06:03:14;93352.81;;;4.51;53.09
30935;BME280;51033;42.648;23.292;2023-03-05T06:05:41;93360.78;;;4.46;53.06
30935;BME280;51033;42.648;23.292;2023-03-05T06:08:07;93348.66;;;4.26;53.21
30935;BME280;51033;42.648;23.292;2023-03-05T06:10:33;93372.72;;;4.19;53.35
30935;BME280;51033;42.648;23.292;2023-03-05T06:12:59;93356.16;;;4.19;52.94
30935;BME280;51033;42.648;23.292;2023-03-05T06:15:24;93362.63;;;4.26;53.35
30935;BME280;51033;42.648;23.292;2023-03-05T06:17:49;93364.66;;;4.35;53.88
30935;BME280;51033;42.648;23.292;2023-03-05T06:20:15;93353.41;;;4.48;52.92
30935;BME280;51033;42.648;23.292;2023-03-05T06:22:40;93344.84;;;4.56;52.58
30935;BME280;51033;42.648;23.292;2023-03-05T06:25:07;93372.59;;;4.67;51.65
30935;BME280;51033;42.648;23.292;2023-03-05T06:27:34;93370.25;;;4.84;51.04
30935;BME280;51033;42.648;23.292;2023-03-05T06:30:00;93364.91;;;4.89;49.91
30935;BME280;51033;42.648;23.292;2023-03-05T06:32:25;93376.03;;;5.00;50.49
30935;BME280;51033;42.648;23.292;2023-03-05T06:34:51;93373.13;;;5.01;50.18
30935;BME280;51033;42.648;23.292;2023-03-05T06:37:16;93349.81;;;4.76;50.42
30935;BME280;51033;42.648;23.292;2023-03-05T06:39:42;93346.69;;;4.74;49.82
30935;BME280;51033;42.648;23.292;2023-03-05T06:42:08;93362.66;;;4.96;49.74
30935;BME280;51033;42.648;23.292;2023-03-05T06:44:36;93372.13;;;4.97;49.41
30935;BME280;51033;42.648;23.292;2023-03-05T06:47:04;93372.06;;;5.02;49.06
30935;BME280;51033;42.648;23.292;2023-03-05T06:49:29;93364.91;;;4.89;49.09
30935;BME280;51033;42.648;23.292;2023-03-05T06:51:54;93366.03;;;4.83;48.87
30935;BME280;51033;42.648;23.292;2023-03-05T06:54:20;93361.41;;;4.75;49.06
30935;BME280;51033;42.648;23.292;2023-03-05T06:56:45;93352.31;;;4.67;49.81
30935;BME280;51033;42.648;23.292;2023-03-05T06:59:13;93365.47;;;4.86;49.55
30935;BME280;51033;42.648;23.292;2023-03-05T07:01:39;93385.63;;;5.09;49.33
30935;BME280;51033;42.648;23.292;2023-03-05T07:04:04;93379.22;;;5.16;49.02
30935;BME280;51033;42.648;23.292;2023-03-05T07:06:33;93383.94;;;5.32;47.83
30935;BME280;51033;42.648;23.292;2023-03-05T07:09:00;93357.00;;;4.89;47.53
30935;BME280;51033;42.648;23.292;2023-03-05T07:11:26;93379.22;;;5.16;47.70
30935;BME280;51033;42.648;23.292;2023-03-05T07:13:52;93381.69;;;5.26;48.48
30935;BME280;51033;42.648;23.292;2023-03-05T07:16:20;93364.97;;;5.30;47.51
30935;BME280;51033;42.648;23.292;2023-03-05T07:18:46;93382.91;;;5.47;48.48
30935;BME280;51033;42.648;23.292;2023-03-05T07:21:16;93373.78;;;5.39;47.83
30935;BME280;51033;42.648;23.292;2023-03-05T07:23:42;93345.47;;;5.31;48.16
30935;BME280;51033;42.648;23.292;2023-03-05T07:26:07;93355.72;;;5.33;47.39
30935;BME280;51033;42.648;23.292;2023-03-05T07:28:33;93383.63;;;5.34;48.43
30935;BME280;51033;42.648;23.292;2023-03-05T07:31:05;93374.13;;;5.19;48.95
30935;BME280;51033;42.648;23.292;2023-03-05T07:33:32;93378.88;;;5.36;48.70
30935;BME280;51033;42.648;23.292;2023-03-05T07:35:59;93373.59;;;5.36;48.82
30935;BME280;51033;42.648;23.292;2023-03-05T07:38:25;93379.56;;;5.55;48.74
30935;BME280;51033;42.648;23.292;2023-03-05T07:40:50;93387.72;;;5.72;48.75
30935;BME280;51033;42.648;23.292;2023-03-05T07:43:16;93386.16;;;5.71;48.82
30935;BME280;51033;42.648;23.292;2023-03-05T07:45:43;93372.53;;;5.64;49.41
30935;BME280;51033;42.648;23.292;2023-03-05T07:48:15;93354.06;;;5.50;49.71
30935;BME280;51033;42.648;23.292;2023-03-05T07:50:42;93374.38;;;5.50;49.06
30935;BME280;51033;42.648;23.292;2023-03-05T07:53:08;93366.00;;;5.48;49.08
30935;BME280;51033;42.648;23.292;2023-03-05T07:55:34;93379.47;;;5.60;49.41
30935;BME280;51033;42.648;23.292;2023-03-05T07:58:05;93363.84;;;5.50;49.47
30935;BME280;51033;42.648;23.292;2023-03-05T08:00:30;93383.41;;;5.63;49.50
30935;BME280;51033;42.648;23.292;2023-03-05T08:02:56;93370.50;;;5.61;50.00
30935;BME280;51033;42.648;23.292;2023-03-05T08:05:21;93357.97;;;5.53;49.85
30935;BME280;51033;42.648;23.292;2023-03-05T08:07:47;93365.22;;;5.47;50.08
30935;BME280;51033;42.648;23.292;2023-03-05T08:10:12;93373.22;;;5.56;49.77
30935;BME280;51033;42.648;23.292;2023-03-05T08:12:37;93353.47;;;5.40;50.07
30935;BME280;51033;42.648;23.292;2023-03-05T08:15:03;93388.97;;;5.61;50.11
30935;BME280;51033;42.648;23.292;2023-03-05T08:17:29;93368.72;;;5.43;50.17
30935;BME280;51033;42.648;23.292;2023-03-05T08:19:54;93375.59;;;5.57;50.45
30935;BME280;51033;42.648;23.292;2023-03-05T08:22:22;93358.56;;;5.50;50.28
30935;BME280;51033;42.648;23.292;2023-03-05T08:24:47;93358.75;;;5.53;50.40
30935;BME280;51033;42.648;23.292;2023-03-05T08:27:14;93356.34;;;5.57;49.95
30935;BME280;51033;42.648;23.292;2023-03-05T08:29:39;93386.53;;;5.65;49.50
30935;BME280;51033;42.648;23.292;2023-03-05T08:32:05;93361.81;;;5.61;50.25
30935;BME280;51033;42.648;23.292;2023-03-05T08:34:30;93359.06;;;5.52;49.80
30935;BME280;51033;42.648;23.292;2023-03-05T08:36:56;93363.75;;;5.69;50.31
30935;BME280;51033;42.648;23.292;2023-03-05T08:39:21;93358.78;;;5.81;50.95
30935;BME280;51033;42.648;23.292;2023-03-05T08:41:46;93346.84;;;5.83;49.55
30935;BME280;51033;42.648;23.292;2023-03-05T08:44:12;93365.97;;;6.02;49.63
30935;BME280;51033;42.648;23.292;2023-03-05T08:46:38;93340.13;;;5.77;49.08
30935;BME280;51033;42.648;23.292;2023-03-05T08:49:04;93358.09;;;5.75;48.28
30935;BME280;51033;42.648;23.292;2023-03-05T08:51:31;93350.94;;;5.89;48.59
30935;BME280;51033;42.648;23.292;2023-03-05T08:53:58;93365.31;;;5.83;48.60
30935;BME280;51033;42.648;23.292;2023-03-05T08:56:23;93360.03;;;5.83;47.52
30935;BME280;51033;42.648;23.292;2023-03-05T08:58:51;93348.13;;;5.72;46.95
30935;BME280;51033;42.648;23.292;2023-03-05T09:01:17;93354.06;;;5.64;47.58
30935;BME280;51033;42.648;23.292;2023-03-05T09:03:43;93327.88;;;5.40;47.89
30935;BME280;51033;42.648;23.292;2023-03-05T09:06:10;93331.31;;;5.41;48.45
30935;BME280;51033;42.648;23.292;2023-03-05T09:08:37;93348.22;;;5.67;48.07
30935;BME280;51033;42.648;23.292;2023-03-05T09:11:05;93341.28;;;5.85;46.70
30935;BME280;51033;42.648;23.292;2023-03-05T09:13:31;93338.44;;;5.68;46.68
30935;BME280;51033;42.648;23.292;2023-03-05T09:15:58;93333.66;;;5.70;45.96
30935;BME280;51033;42.648;23.292;2023-03-05T09:18:25;93330.34;;;5.64;45.94
30935;BME280;51033;42.648;23.292;2023-03-05T09:20:51;93326.53;;;5.56;46.71
30935;BME280;51033;42.648;23.292;2023-03-05T09:23:16;93323.69;;;5.80;46.76
30935;BME280;51033;42.648;23.292;2023-03-05T09:25:42;93344.69;;;5.99;46.38
30935;BME280;51033;42.648;23.292;2023-03-05T09:28:07;93339.78;;;5.92;45.79
30935;BME280;51033;42.648;23.292;2023-03-05T09:30:33;93322.03;;;5.84;45.62
30935;BME280;51033;42.648;23.292;2023-03-05T09:33:02;93324.94;;;5.96;45.54
30935;BME280;51033;42.648;23.292;2023-03-05T09:35:28;93331.59;;;5.94;45.58
30935;BME280;51033;42.648;23.292;2023-03-05T09:37:54;93323.75;;;6.02;46.24
30935;BME280;51033;42.648;23.292;2023-03-05T09:40:20;93317.59;;;6.21;45.49
30935;BME280;51033;42.648;23.292;2023-03-05T09:43:00;93313.34;;;6.33;45.46
30935;BME280;51033;42.648;23.292;2023-03-05T09:48:47;93311.28;;;6.44;43.79
30935;BME280;51033;42.648;23.292;2023-03-05T09:51:33;93292.22;;;6.56;44.85
30935;BME280;51033;42.648;23.292;2023-03-05T09:54:05;93290.84;;;6.58;44.75
30935;BME280;51033;42.648;23.292;2023-03-05T09:56:35;93285.34;;;6.68;44.80
30935;BME280;51033;42.648;23.292;2023-03-05T09:59:12;93303.09;;;6.99;44.45
30935;BME280;51033;42.648;23.292;2023-03-05T10:01:42;93300.50;;;7.07;43.38
30935;BME280;51033;42.648;23.292;2023-03-05T10:04:24;93299.56;;;7.03;41.46
30935;BME280;51033;42.648;23.292;2023-03-05T10:06:57;93299.34;;;7.00;43.14
30935;BME280;51033;42.648;23.292;2023-03-05T10:12:05;93284.47;;;7.04;43.15
30935;BME280;51033;42.648;23.292;2023-03-05T10:14:37;93278.84;;;7.05;43.19
30935;BME280;51033;42.648;23.292;2023-03-05T10:23:13;93276.06;;;7.41;42.49
30935;BME280;51033;42.648;23.292;2023-03-05T10:28:24;93254.09;;;7.32;42.43
30935;BME280;51033;42.648;23.292;2023-03-05T10:33:56;93255.09;;;7.53;40.23
30935;BME280;51033;42.648;23.292;2023-03-05T10:46:37;93243.84;;;7.39;41.23
30935;BME280;51033;42.648;23.292;2023-03-05T10:49:17;93234.22;;;7.43;41.16
30935;BME280;51033;42.648;23.292;2023-03-05T10:52:12;93242.97;;;7.52;42.07
30935;BME280;51033;42.648;23.292;2023-03-05T10:54:40;93230.47;;;7.44;41.85
30935;BME280;51033;42.648;23.292;2023-03-05T10:57:19;93230.94;;;7.38;43.18
30935;BME280;51033;42.648;23.292;2023-03-05T11:02:31;93214.75;;;7.39;42.43
30935;BME280;51033;42.648;23.292;2023-03-05T11:04:58;93192.84;;;7.47;42.12
30935;BME280;51033;42.648;23.292;2023-03-05T11:10:17;93208.09;;;7.50;40.37
30935;BME280;51033;42.648;23.292;2023-03-05T11:12:44;93168.34;;;7.24;41.50
30935;BME280;51033;42.648;23.292;2023-03-05T11:17:44;93202.81;;;7.59;41.09
30935;BME280;51033;42.648;23.292;2023-03-05T11:20:31;93199.09;;;7.68;40.88
30935;BME280;51033;42.648;23.292;2023-03-05T11:26:04;93186.50;;;7.74;40.38
30935;BME280;51033;42.648;23.292;2023-03-05T11:28:55;93178.13;;;7.81;40.44
30935;BME280;51033;42.648;23.292;2023-03-05T11:31:24;93146.63;;;7.62;40.46
30935;BME280;51033;42.648;23.292;2023-03-05T11:36:23;93183.91;;;7.91;41.09
30935;BME280;51033;42.648;23.292;2023-03-05T11:41:22;93170.03;;;8.03;40.84
30935;BME280;51033;42.648;23.292;2023-03-05T11:43:49;93167.53;;;7.98;41.13
30935;BME280;51033;42.648;23.292;2023-03-05T11:46:17;93165.34;;;7.83;40.98
30935;BME280;51033;42.648;23.292;2023-03-05T11:48:43;93161.31;;;7.85;40.57
30935;BME280;51033;42.648;23.292;2023-03-05T11:51:21;93157.75;;;8.07;41.02
30935;BME280;51033;42.648;23.292;2023-03-05T11:53:54;93137.63;;;7.89;40.34
30935;BME280;51033;42.648;23.292;2023-03-05T11:56:32;93154.28;;;8.15;40.00
30935;BME280;51033;42.648;23.292;2023-03-05T11:59:13;93115.53;;;7.85;40.59
30935;BME280;51033;42.648;23.292;2023-03-05T12:01:51;93126.44;;;7.92;40.83
30935;BME280;51033;42.648;23.292;2023-03-05T12:04:17;93138.25;;;7.94;41.28
30935;BME280;51033;42.648;23.292;2023-03-05T12:06:51;93105.38;;;7.69;41.48
30935;BME280;51033;42.648;23.292;2023-03-05T12:14:57;93115.03;;;7.83;42.07
30935;BME280;51033;42.648;23.292;2023-03-05T12:17:27;93120.81;;;7.93;40.66
30935;BME280;51033;42.648;23.292;2023-03-05T12:22:36;93103.34;;;7.49;42.05
30935;BME280;51033;42.648;23.292;2023-03-05T12:31:26;93092.28;;;7.64;42.37
30935;BME280;51033;42.648;23.292;2023-03-05T12:33:51;93095.91;;;7.77;42.49
30935;BME280;51033;42.648;23.292;2023-03-05T12:38:49;93088.56;;;7.65;41.75
30935;BME280;51033;42.648;23.292;2023-03-05T12:46:35;93081.56;;;7.69;42.16
30935;BME280;51033;42.648;23.292;2023-03-05T12:51:46;93063.81;;;7.70;41.35
30935;BME280;51033;42.648;23.292;2023-03-05T12:56:58;93056.66;;;7.79;41.85
30935;BME280;51033;42.648;23.292;2023-03-05T12:59:34;93074.25;;;7.84;40.59
30935;BME280;51033;42.648;23.292;2023-03-05T13:02:03;93065.22;;;7.50;41.41
30935;BME280;51033;42.648;23.292;2023-03-05T13:04:40;93077.34;;;7.51;41.37
30935;BME280;51033;42.648;23.292;2023-03-05T13:07:16;93055.56;;;7.37;41.26
30935;BME280;51033;42.648;23.292;2023-03-05T13:09:55;93059.91;;;7.59;41.30
30935;BME280;51033;42.648;23.292;2023-03-05T13:12:21;93072.38;;;7.84;40.54
30935;BME280;51033;42.648;23.292;2023-03-05T13:15:07;93069.28;;;7.73;40.81
30935;BME280;51033;42.648;23.292;2023-03-05T13:17:53;93072.03;;;7.68;40.91
30935;BME280;51033;42.648;23.292;2023-03-05T13:20:33;93068.00;;;7.71;40.86
30935;BME280;51033;42.648;23.292;2023-03-05T13:25:41;93057.16;;;7.73;40.22
30935;BME280;51033;42.648;23.292;2023-03-05T13:28:13;93068.03;;;7.80;40.22
30935;BME280;51033;42.648;23.292;2023-03-05T13:30:43;93050.91;;;7.77;40.64
30935;BME280;51033;42.648;23.292;2023-03-05T13:33:16;93040.00;;;7.61;40.25
30935;BME280;51033;42.648;23.292;2023-03-05T13:35:44;93036.88;;;7.59;39.56
30935;BME280;51033;42.648;23.292;2023-03-05T13:41:24;92990.66;;;7.40;40.21
30935;BME280;51033;42.648;23.292;2023-03-05T13:43:53;93056.03;;;7.48;40.36
30935;BME280;51033;42.648;23.292;2023-03-05T13:46:35;93076.56;;;7.51;40.38
30935;BME280;51033;42.648;23.292;2023-03-05T13:49:35;93073.81;;;7.82;40.80
30935;BME280;51033;42.648;23.292;2023-03-05T13:52:00;93067.06;;;7.93;40.18
30935;BME280;51033;42.648;23.292;2023-03-05T13:54:27;93049.97;;;7.82;40.11
30935;BME280;51033;42.648;23.292;2023-03-05T13:56:57;93071.28;;;7.94;40.02
30935;BME280;51033;42.648;23.292;2023-03-05T13:59:28;93063.19;;;7.99;39.57
30935;BME280;51033;42.648;23.292;2023-03-05T14:01:56;93073.94;;;7.85;39.38
30935;BME280;51033;42.648;23.292;2023-03-05T14:04:28;93068.19;;;7.75;39.42
30935;BME280;51033;42.648;23.292;2023-03-05T14:07:07;93067.09;;;7.67;39.79
30935;BME280;51033;42.648;23.292;2023-03-05T14:09:50;93048.72;;;7.62;40.27
30935;BME280;51033;42.648;23.292;2023-03-05T14:14:57;93069.13;;;7.79;40.18
30935;BME280;51033;42.648;23.292;2023-03-05T14:19:52;93077.69;;;7.84;39.15
30935;BME280;51033;42.648;23.292;2023-03-05T14:22:36;93055.56;;;7.63;39.79
30935;BME280;51033;42.648;23.292;2023-03-05T14:25:03;93050.88;;;7.68;39.49
30935;BME280;51033;42.648;23.292;2023-03-05T14:27:38;93052.00;;;7.67;39.31